This is the latest recevied weather packets stored in our database for station/object DL1AIE-13. If no packets are shown the sender has not sent any weather packets the latest 10 day(s).
| Time | Temp. | Humidity | Pressure | Rain* | Wind** | Luminosity | Snow |
|---|---|---|---|---|---|---|---|
| 1777886839 | 19.44° C | 50% | 1014.8 hPa | 0 mm | - | - | - |
| 1777886255 | 18.89° C | 52% | 1014.8 hPa | 0 mm | - | - | - |
| 1777885652 | 19.44° C | 54% | 1014.8 hPa | 0 mm | - | - | - |
| 1777885048 | 18.89° C | 53% | 1014.9 hPa | 0 mm | - | - | - |
| 1777884447 | 18.33° C | 53% | 1014.8 hPa | 0 mm | - | - | - |
| 1777883841 | 18.89° C | 52% | 1014.9 hPa | 0 mm | - | - | - |
| 1777883237 | 17.78° C | 55% | 1014.9 hPa | 0 mm | - | - | - |
| 1777882653 | 18.33° C | 53% | 1014.8 hPa | 0 mm | - | - | - |
| 1777882050 | 17.78° C | 56% | 1014.8 hPa | 0 mm | - | - | - |
| 1777881446 | 17.22° C | 55% | 1014.9 hPa | 0 mm | - | - | - |
| 1777880842 | 17.22° C | 56% | 1014.8 hPa | 0 mm | - | - | - |
| 1777880239 | 17.22° C | 56% | 1014.9 hPa | 0 mm | - | - | - |
| 1777879655 | 17.22° C | 56% | 1014.7 hPa | 0 mm | - | - | - |
| 1777879051 | 16.67° C | 57% | 1014.7 hPa | 0 mm | - | - | - |
| 1777878448 | 16.67° C | 59% | 1014.8 hPa | 0 mm | - | - | - |
| 1777877844 | 16.67° C | 62% | 1014.8 hPa | 0 mm | - | - | - |
| 1777877240 | 17.22° C | 62% | 1014.6 hPa | 0 mm | - | - | - |
| 1777876637 | 16.11° C | 67% | 1014.7 hPa | 0 mm | - | - | - |
| 1777876053 | 14.44° C | 70% | 1014.7 hPa | 0 mm | - | - | - |
| 1777875450 | 13.89° C | 72% | 1014.7 hPa | 0 mm | - | - | - |
| 1777874846 | 13.89° C | 73% | 1014.6 hPa | 0 mm | - | - | - |
| 1777874245 | 13.33° C | 74% | 1014.6 hPa | 0 mm | - | - | - |
| 1777873639 | 12.78° C | 77% | 1014.7 hPa | 0 mm | - | - | - |
| 1777873055 | 12.22° C | 78% | 1014.7 hPa | 0 mm | - | - | - |
| 1777872451 | 11.11° C | 83% | 1014.7 hPa | 0 mm | - | - | - |
* Rain latest hour (hover to see other rain measurements)
** Current wind speed in m/s (hover to see current wind gust speed)